createdAt,value
2022-12-03T00:00:25.969Z,8.35
2022-12-03T00:02:52.455Z,8.70
2022-12-03T00:05:18.949Z,9.50
2022-12-03T00:07:45.548Z,9.43
2022-12-03T00:10:12.222Z,9.15
2022-12-03T00:12:38.562Z,10.27
2022-12-03T00:15:06.488Z,10.70
2022-12-03T00:17:33.008Z,8.85
2022-12-03T00:19:59.370Z,8.97
2022-12-03T00:22:25.806Z,8.38
2022-12-03T00:24:52.397Z,10.18
2022-12-03T00:27:18.882Z,8.70
2022-12-03T00:29:45.856Z,9.82
2022-12-03T00:32:13.900Z,10.03
2022-12-03T00:34:40.353Z,7.82
2022-12-03T00:37:06.733Z,9.68
2022-12-03T00:39:33.104Z,9.40
2022-12-03T00:41:59.611Z,9.75
2022-12-03T00:44:26.121Z,7.77
2022-12-03T00:46:52.536Z,8.45
2022-12-03T00:49:18.995Z,7.47
2022-12-03T00:51:45.353Z,7.72
2022-12-03T00:54:11.882Z,9.82
2022-12-03T00:56:38.217Z,8.53
2022-12-03T00:59:04.552Z,8.73
2022-12-03T01:01:30.962Z,9.30
2022-12-03T01:03:57.401Z,9.55
2022-12-03T01:06:23.820Z,8.75
2022-12-03T01:08:50.156Z,9.67
2022-12-03T01:11:35.217Z,9.43
2022-12-03T01:14:01.624Z,9.48
2022-12-03T01:16:28.067Z,8.88
2022-12-03T01:18:54.575Z,10.05
2022-12-03T01:21:20.972Z,9.10
2022-12-03T01:23:47.338Z,9.77
2022-12-03T01:26:13.816Z,9.23
2022-12-03T01:28:41.933Z,9.85
2022-12-03T01:31:27.407Z,9.65
2022-12-03T01:33:53.870Z,11.00
2022-12-03T01:36:20.223Z,8.40
2022-12-03T01:38:46.580Z,11.00
2022-12-03T01:41:12.937Z,9.25
2022-12-03T01:43:39.367Z,9.00
2022-12-03T01:46:06.161Z,8.40
2022-12-03T01:48:35.499Z,9.02
2022-12-03T01:51:02.084Z,10.70
2022-12-03T01:53:28.443Z,10.65
2022-12-03T01:55:55.296Z,9.23
2022-12-03T01:58:28.626Z,8.67
2022-12-03T02:00:56.721Z,10.25
2022-12-03T02:03:25.682Z,10.68
2022-12-03T02:05:52.338Z,10.02
2022-12-03T02:08:37.381Z,7.45
2022-12-03T02:11:16.630Z,10.37
2022-12-03T02:13:44.070Z,10.95
2022-12-03T02:16:10.606Z,9.27
2022-12-03T02:18:37.070Z,7.93
2022-12-03T02:21:16.567Z,9.80
2022-12-03T02:23:58.167Z,10.57
2022-12-03T02:26:24.770Z,7.95
2022-12-03T02:28:51.135Z,8.75
2022-12-03T02:31:17.639Z,9.13
2022-12-03T02:33:44.495Z,10.35
2022-12-03T02:36:11.891Z,9.77
2022-12-03T02:38:38.870Z,11.52
2022-12-03T02:41:09.084Z,9.50
2022-12-03T02:43:36.126Z,8.57
2022-12-03T02:46:04.597Z,10.40
2022-12-03T02:48:39.243Z,8.63
2022-12-03T02:51:09.180Z,8.43
2022-12-03T02:53:42.146Z,8.75
2022-12-03T02:56:09.185Z,8.75
2022-12-03T02:58:35.766Z,9.32
2022-12-03T03:01:03.735Z,10.67
2022-12-03T03:03:31.880Z,11.48
2022-12-03T03:06:01.134Z,8.10
2022-12-03T03:08:28.810Z,10.57
2022-12-03T03:10:56.707Z,10.00
2022-12-03T03:13:23.320Z,10.07
2022-12-03T03:15:49.734Z,8.93
2022-12-03T03:18:16.636Z,10.63
2022-12-03T03:20:43.946Z,8.98
2022-12-03T03:23:17.691Z,9.23
2022-12-03T03:25:47.685Z,8.87
2022-12-03T03:28:15.295Z,9.43
2022-12-03T03:30:43.773Z,10.40
2022-12-03T03:33:11.212Z,10.15
2022-12-03T03:35:38.423Z,11.48
2022-12-03T03:38:06.676Z,9.50
2022-12-03T03:40:33.311Z,9.40
2022-12-03T03:43:00.787Z,10.40
2022-12-03T03:45:29.588Z,10.48
2022-12-03T03:47:57.940Z,9.98
2022-12-03T03:50:25.481Z,8.93
2022-12-03T03:52:52.084Z,10.38
2022-12-03T03:55:20.351Z,10.60
2022-12-03T03:57:48.204Z,11.63
2022-12-03T04:00:15.354Z,9.57
2022-12-03T04:02:41.978Z,10.13
2022-12-03T04:05:15.461Z,11.50
2022-12-03T04:07:41.872Z,10.48
2022-12-03T04:10:27.883Z,9.63
2022-12-03T04:12:56.917Z,10.38
2022-12-03T04:15:24.532Z,10.33
2022-12-03T04:18:10.419Z,9.95
2022-12-03T04:20:37.945Z,9.93
2022-12-03T04:23:05.114Z,9.93
2022-12-03T04:25:50.218Z,12.95
2022-12-03T04:28:35.565Z,9.63
2022-12-03T04:31:22.089Z,11.70
2022-12-03T04:34:07.236Z,10.38
2022-12-03T04:36:33.642Z,9.63
2022-12-03T04:39:00.045Z,11.43
2022-12-03T04:41:26.402Z,10.67
2022-12-03T04:44:11.486Z,10.98
2022-12-03T04:46:37.844Z,10.90
2022-12-03T04:49:04.291Z,9.80
2022-12-03T04:51:30.635Z,10.32
2022-12-03T04:53:57.003Z,12.37
2022-12-03T04:56:23.437Z,12.93
2022-12-03T04:58:49.794Z,10.23
2022-12-03T05:01:16.185Z,11.73
2022-12-03T05:03:42.556Z,13.43
2022-12-03T05:06:08.938Z,10.10
2022-12-03T05:08:35.297Z,9.75
2022-12-03T05:11:01.670Z,11.57
2022-12-03T05:13:28.074Z,11.65
2022-12-03T05:15:54.417Z,9.65
2022-12-03T05:18:20.847Z,10.47
2022-12-03T05:20:53.167Z,12.30
2022-12-03T05:23:20.610Z,12.65
2022-12-03T05:25:47.233Z,12.50
2022-12-03T05:28:13.604Z,12.57
2022-12-03T05:30:40.369Z,12.40
2022-12-03T05:33:06.868Z,13.30
2022-12-03T05:35:33.407Z,12.80
2022-12-03T05:37:59.763Z,14.80
2022-12-03T05:40:26.103Z,17.02
2022-12-03T05:42:56.750Z,13.90
2022-12-03T05:45:23.376Z,13.93
2022-12-03T05:47:49.746Z,13.98
2022-12-03T05:50:16.245Z,14.82
2022-12-03T05:52:46.743Z,14.48
2022-12-03T05:55:13.785Z,14.57
2022-12-03T05:57:40.184Z,13.98
2022-12-03T06:00:12.603Z,13.82
2022-12-03T06:02:39.102Z,14.07
2022-12-03T06:05:07.690Z,13.93
2022-12-03T06:07:37.674Z,13.13
2022-12-03T06:10:11.399Z,11.90
2022-12-03T06:12:37.840Z,12.65
2022-12-03T06:15:05.120Z,11.80
2022-12-03T06:17:31.667Z,13.10
2022-12-03T06:19:58.056Z,12.77
2022-12-03T06:22:24.508Z,12.77
2022-12-03T06:24:51.089Z,10.68
2022-12-03T06:27:17.990Z,12.80
2022-12-03T06:29:46.468Z,13.38
2022-12-03T06:32:12.819Z,11.43
2022-12-03T06:34:39.296Z,11.32
2022-12-03T06:37:05.664Z,10.55
2022-12-03T06:39:32.024Z,12.05
2022-12-03T06:41:58.485Z,11.50
2022-12-03T06:44:24.902Z,12.30
2022-12-03T06:46:51.325Z,12.48
2022-12-03T06:49:17.905Z,13.48
2022-12-03T06:51:44.431Z,11.38
2022-12-03T06:54:10.793Z,13.00
2022-12-03T06:56:43.515Z,11.07
2022-12-03T06:59:12.171Z,12.23
2022-12-03T07:01:38.656Z,10.50
2022-12-03T07:04:05.242Z,12.07
2022-12-03T07:06:31.725Z,12.73
2022-12-03T07:08:58.111Z,11.07
2022-12-03T07:11:39.588Z,11.55
2022-12-03T07:14:07.864Z,12.07
2022-12-03T07:16:38.241Z,13.77
2022-12-03T07:19:06.428Z,11.80
2022-12-03T07:21:33.118Z,13.27
2022-12-03T07:23:59.513Z,12.55
2022-12-03T07:26:26.025Z,11.18
2022-12-03T07:28:52.369Z,12.00
2022-12-03T07:31:18.840Z,11.85
2022-12-03T07:33:45.232Z,10.07
2022-12-03T07:36:11.674Z,14.45
2022-12-03T07:38:38.090Z,12.18
2022-12-03T07:41:04.537Z,10.77
2022-12-03T07:43:30.984Z,12.35
2022-12-03T07:45:57.394Z,12.70
2022-12-03T07:48:23.806Z,11.02
2022-12-03T07:50:50.202Z,11.13
2022-12-03T07:53:16.642Z,12.45
2022-12-03T07:55:43.026Z,12.63
2022-12-03T07:58:09.585Z,10.43
2022-12-03T08:00:36.074Z,12.32
2022-12-03T08:03:02.524Z,11.45
2022-12-03T08:05:29.912Z,10.45
2022-12-03T08:07:56.621Z,10.98
2022-12-03T08:10:25.360Z,13.50
2022-12-03T08:12:51.841Z,10.60
2022-12-03T08:15:20.866Z,12.90
2022-12-03T08:17:54.195Z,14.75
2022-12-03T08:20:23.531Z,13.73
2022-12-03T08:22:51.849Z,13.83
2022-12-03T08:25:25.475Z,16.15
2022-12-03T08:27:56.452Z,13.82
2022-12-03T08:30:23.475Z,14.00
2022-12-03T08:32:51.443Z,15.15
2022-12-03T08:35:27.329Z,13.00
2022-12-03T08:38:11.968Z,13.18
2022-12-03T08:40:43.658Z,14.73
2022-12-03T08:43:24.920Z,14.05
2022-12-03T08:45:53.690Z,14.32
2022-12-03T08:48:32.608Z,13.57
2022-12-03T08:51:21.070Z,13.73
2022-12-03T08:53:50.055Z,14.88
2022-12-03T08:56:24.897Z,13.75
2022-12-03T08:58:58.493Z,12.98
2022-12-03T09:01:35.099Z,12.80
2022-12-03T09:04:57.233Z,13.77
2022-12-03T09:07:23.582Z,14.25
2022-12-03T09:09:49.930Z,13.88
2022-12-03T09:12:16.335Z,15.23
2022-12-03T09:14:42.702Z,14.17
2022-12-03T09:17:09.122Z,13.45
2022-12-03T09:19:35.603Z,13.25
2022-12-03T09:22:01.961Z,12.35
2022-12-03T09:24:28.420Z,15.68
2022-12-03T09:26:54.754Z,13.17
2022-12-03T09:29:21.143Z,11.20
2022-12-03T09:31:47.603Z,14.60
2022-12-03T09:34:14.067Z,13.60
2022-12-03T09:36:40.697Z,15.80
2022-12-03T09:39:07.063Z,14.40
2022-12-03T09:41:33.581Z,13.90
2022-12-03T09:44:04.741Z,10.85
2022-12-03T09:46:32.493Z,9.20
2022-12-03T09:48:58.959Z,10.93
2022-12-03T09:51:32.428Z,10.93
2022-12-03T09:54:01.048Z,10.60
2022-12-03T09:56:27.400Z,9.38
2022-12-03T09:58:54.407Z,10.63
2022-12-03T10:01:20.976Z,10.88
2022-12-03T10:03:50.663Z,13.30
2022-12-03T10:06:23.336Z,11.57
2022-12-03T10:08:53.487Z,14.35
2022-12-03T10:11:22.427Z,11.45
2022-12-03T10:13:48.918Z,11.25
2022-12-03T10:16:18.109Z,10.47
2022-12-03T10:18:48.314Z,8.70
2022-12-03T10:21:17.873Z,7.97
2022-12-03T10:23:49.549Z,9.02
2022-12-03T10:26:18.624Z,11.00
2022-12-03T10:28:47.554Z,11.60
2022-12-03T10:31:14.722Z,11.93
2022-12-03T10:33:44.782Z,8.85
2022-12-03T10:36:23.578Z,12.02
2022-12-03T10:39:16.671Z,13.45
2022-12-03T10:41:44.553Z,13.90
2022-12-03T10:44:25.463Z,11.48
2022-12-03T10:47:06.953Z,13.32
2022-12-03T10:49:33.558Z,12.25
2022-12-03T10:52:00.149Z,10.43
2022-12-03T10:54:28.250Z,10.30
2022-12-03T10:56:54.611Z,11.25
2022-12-03T10:59:24.034Z,11.15
2022-12-03T11:01:51.460Z,12.60
2022-12-03T11:04:30.667Z,11.00
2022-12-03T11:06:57.151Z,13.00
2022-12-03T11:09:29.769Z,11.38
2022-12-03T11:12:02.681Z,10.18
2022-12-03T11:14:51.938Z,8.60
2022-12-03T11:17:41.607Z,10.55
2022-12-03T11:20:22.802Z,12.60
2022-12-03T11:22:51.153Z,9.93
2022-12-03T11:25:26.778Z,11.10
2022-12-03T11:28:11.828Z,10.82
2022-12-03T11:30:53.584Z,9.52
2022-12-03T11:33:22.980Z,10.40
2022-12-03T11:36:04.579Z,9.82
2022-12-03T11:38:37.000Z,8.05
2022-12-03T11:41:21.743Z,9.88
2022-12-03T11:43:57.127Z,8.32
2022-12-03T11:46:25.495Z,6.83
2022-12-03T11:48:54.660Z,7.53
2022-12-03T11:51:23.441Z,8.77
2022-12-03T11:53:51.203Z,8.35
2022-12-03T11:56:22.571Z,8.68
2022-12-03T11:58:56.936Z,7.53
2022-12-03T12:01:40.007Z,7.65
2022-12-03T12:04:08.639Z,8.63
2022-12-03T12:06:44.519Z,7.28
2022-12-03T12:09:10.948Z,7.68
2022-12-03T12:11:41.378Z,8.83
2022-12-03T12:14:12.084Z,7.20
2022-12-03T12:16:52.099Z,9.05
2022-12-03T12:19:31.833Z,6.93
2022-12-03T12:22:27.310Z,9.80
2022-12-03T12:24:53.710Z,10.63
2022-12-03T12:27:39.136Z,7.72
2022-12-03T12:30:19.696Z,9.13
2022-12-03T12:32:48.980Z,10.98
2022-12-03T12:35:21.325Z,9.30
2022-12-03T12:37:59.183Z,8.87
2022-12-03T12:40:29.914Z,10.52
2022-12-03T12:43:08.211Z,8.73
2022-12-03T12:45:39.138Z,12.63
2022-12-03T12:48:14.518Z,13.63
2022-12-03T12:50:42.787Z,11.07
2022-12-03T12:53:26.569Z,13.25
2022-12-03T12:55:59.399Z,12.38
2022-12-03T12:58:28.245Z,10.70
2022-12-03T13:00:57.932Z,11.75
2022-12-03T13:03:32.643Z,9.67
2022-12-03T13:05:59.095Z,14.50
2022-12-03T13:08:29.367Z,14.73
2022-12-03T13:11:02.953Z,12.65
2022-12-03T13:13:44.655Z,12.07
2022-12-03T13:16:22.508Z,12.00
2022-12-03T13:18:53.929Z,12.68
2022-12-03T13:21:32.432Z,12.50
2022-12-03T13:23:59.008Z,10.95
2022-12-03T13:26:38.822Z,14.52
2022-12-03T13:29:11.822Z,14.47
2022-12-03T13:31:43.400Z,11.48
2022-12-03T13:34:19.374Z,14.27
2022-12-03T13:36:51.935Z,12.98
2022-12-03T13:39:28.079Z,14.13
2022-12-03T13:42:13.675Z,13.43
2022-12-03T13:44:46.178Z,13.18
2022-12-03T13:47:15.793Z,14.02
2022-12-03T13:49:49.125Z,11.95
2022-12-03T13:52:20.371Z,14.00
2022-12-03T13:54:50.681Z,14.60
2022-12-03T13:57:17.040Z,14.85
2022-12-03T13:59:43.505Z,12.75
2022-12-03T14:02:10.101Z,12.48
2022-12-03T14:04:36.778Z,13.30
2022-12-03T14:07:03.102Z,13.30
2022-12-03T14:09:29.517Z,12.27
2022-12-03T14:12:14.296Z,11.50
2022-12-03T14:14:40.642Z,12.32
2022-12-03T14:17:09.445Z,13.90
2022-12-03T14:19:35.966Z,11.10
2022-12-03T14:22:02.579Z,12.57
2022-12-03T14:24:28.910Z,10.15
2022-12-03T14:26:55.235Z,11.20
2022-12-03T14:29:21.693Z,10.75
2022-12-03T14:31:48.039Z,12.03
2022-12-03T14:34:14.398Z,12.07
2022-12-03T14:36:40.838Z,9.80
2022-12-03T14:39:07.206Z,11.43
2022-12-03T14:41:52.309Z,11.52
2022-12-03T14:44:21.702Z,10.77
2022-12-03T14:46:49.745Z,11.77
2022-12-03T14:49:18.027Z,8.90
2022-12-03T14:51:44.376Z,11.90
2022-12-03T14:54:10.800Z,13.02
2022-12-03T14:56:37.131Z,8.77
2022-12-03T14:59:03.559Z,10.13
2022-12-03T15:01:29.951Z,9.32
2022-12-03T15:03:56.341Z,8.57
2022-12-03T15:06:22.705Z,9.70
2022-12-03T15:08:49.211Z,8.90
2022-12-03T15:11:15.783Z,11.40
2022-12-03T15:13:42.127Z,12.07
2022-12-03T15:16:08.701Z,11.07
2022-12-03T15:18:35.150Z,12.63
2022-12-03T15:21:01.872Z,9.67
2022-12-03T15:23:28.363Z,12.85
2022-12-03T15:25:54.777Z,12.02
2022-12-03T15:28:23.064Z,12.73
2022-12-03T15:30:50.067Z,12.00
2022-12-03T15:33:16.570Z,12.23
2022-12-03T15:35:44.162Z,13.57
2022-12-03T15:38:11.326Z,13.85
2022-12-03T15:40:38.554Z,12.05
2022-12-03T15:43:08.423Z,15.88
2022-12-03T15:45:35.455Z,15.03
2022-12-03T15:48:02.084Z,14.10
2022-12-03T15:50:28.921Z,14.50
2022-12-03T15:52:55.565Z,15.95
2022-12-03T15:55:21.996Z,13.18
2022-12-03T15:57:49.244Z,14.63
2022-12-03T16:00:16.570Z,14.05
2022-12-03T16:02:47.518Z,15.55
2022-12-03T16:05:17.404Z,16.27
2022-12-03T16:07:43.842Z,16.40
2022-12-03T16:10:11.181Z,18.13
2022-12-03T16:12:37.645Z,15.48
2022-12-03T16:15:04.528Z,15.20
2022-12-03T16:17:30.900Z,15.20
2022-12-03T16:19:57.365Z,14.27
2022-12-03T16:22:23.949Z,16.40
2022-12-03T16:24:50.283Z,14.48
2022-12-03T16:27:16.626Z,17.13
2022-12-03T16:29:42.971Z,15.70
2022-12-03T16:32:09.316Z,13.05
2022-12-03T16:34:35.656Z,13.80
2022-12-03T16:37:02.007Z,13.75
2022-12-03T16:39:28.365Z,14.32
2022-12-03T16:41:54.711Z,13.50
2022-12-03T16:44:32.301Z,15.05
2022-12-03T16:47:01.835Z,14.40
2022-12-03T16:49:28.262Z,16.25
2022-12-03T16:51:54.748Z,15.50
2022-12-03T16:54:21.126Z,15.30
2022-12-03T16:56:47.502Z,13.85
2022-12-03T16:59:13.821Z,15.00
2022-12-03T17:01:40.220Z,12.30
2022-12-03T17:04:06.685Z,15.60
2022-12-03T17:06:33.081Z,13.63
2022-12-03T17:08:59.430Z,15.23
2022-12-03T17:11:25.803Z,12.70
2022-12-03T17:13:52.150Z,15.25
2022-12-03T17:16:18.679Z,13.90
2022-12-03T17:18:45.087Z,15.13
2022-12-03T17:21:11.501Z,18.52
2022-12-03T17:23:37.856Z,11.47
2022-12-03T17:26:04.295Z,13.40
2022-12-03T17:28:30.630Z,14.07
2022-12-03T17:30:57.050Z,15.88
2022-12-03T17:33:23.462Z,14.57
2022-12-03T17:35:49.848Z,17.10
2022-12-03T17:38:16.379Z,16.58
2022-12-03T17:40:45.114Z,16.15
2022-12-03T17:43:11.476Z,14.68
2022-12-03T17:45:37.939Z,14.85
2022-12-03T17:48:04.493Z,14.27
2022-12-03T17:50:30.877Z,14.57
2022-12-03T17:52:57.902Z,15.48
2022-12-03T17:55:33.837Z,15.82
2022-12-03T17:58:05.906Z,14.23
2022-12-03T18:00:33.413Z,14.00
2022-12-03T18:02:59.855Z,16.05
2022-12-03T18:05:26.253Z,14.00
2022-12-03T18:07:52.690Z,14.85
2022-12-03T18:10:19.215Z,15.30
2022-12-03T18:12:45.557Z,13.23
2022-12-03T18:15:11.932Z,16.05
2022-12-03T18:17:38.270Z,16.08
2022-12-03T18:20:05.386Z,15.18
2022-12-03T18:22:31.877Z,13.65
2022-12-03T18:24:58.454Z,12.90
2022-12-03T18:27:25.218Z,15.38
2022-12-03T18:29:51.811Z,13.90
2022-12-03T18:32:28.947Z,13.68
2022-12-03T18:34:56.858Z,15.40
2022-12-03T18:37:26.960Z,13.20
2022-12-03T18:39:53.835Z,14.82
2022-12-03T18:42:21.996Z,13.90
2022-12-03T18:44:50.219Z,15.75
2022-12-03T18:47:19.402Z,14.15
2022-12-03T18:49:46.059Z,15.00
2022-12-03T18:52:14.081Z,14.30
2022-12-03T18:54:40.486Z,14.45
2022-12-03T18:57:06.874Z,14.20
2022-12-03T18:59:33.442Z,12.85
2022-12-03T19:01:59.962Z,15.87
2022-12-03T19:04:26.428Z,13.68
2022-12-03T19:06:53.245Z,14.25
2022-12-03T19:09:19.743Z,13.57
2022-12-03T19:11:46.227Z,13.75
2022-12-03T19:14:12.811Z,14.83
2022-12-03T19:16:40.237Z,14.25
2022-12-03T19:19:07.899Z,14.50
2022-12-03T19:21:35.025Z,12.98
2022-12-03T19:24:23.843Z,12.48
2022-12-03T19:26:48.690Z,13.23
2022-12-03T19:29:15.369Z,11.75
2022-12-03T19:31:41.833Z,13.32
2022-12-03T19:34:08.386Z,12.02
2022-12-03T19:36:34.786Z,15.52
2022-12-03T19:39:01.492Z,13.07
2022-12-03T19:41:30.587Z,13.40
2022-12-03T19:43:57.537Z,14.10
2022-12-03T19:46:26.291Z,13.45
2022-12-03T19:48:54.822Z,14.05
2022-12-03T19:51:34.321Z,11.37
2022-12-03T19:54:02.439Z,13.07
2022-12-03T19:56:30.280Z,14.32
2022-12-03T19:58:57.737Z,13.02
2022-12-03T20:01:27.655Z,13.95
2022-12-03T20:03:56.164Z,12.87
2022-12-03T20:06:25.950Z,14.50
2022-12-03T20:09:00.392Z,13.32
2022-12-03T20:11:29.605Z,14.00
2022-12-03T20:14:00.941Z,15.63
2022-12-03T20:16:28.351Z,15.73
2022-12-03T20:19:00.839Z,10.80
2022-12-03T20:21:30.163Z,14.57
2022-12-03T20:23:56.555Z,13.05
2022-12-03T20:26:23.234Z,14.82
2022-12-03T20:28:50.007Z,13.53
2022-12-03T20:31:19.497Z,14.27
2022-12-03T20:33:48.408Z,16.50
2022-12-03T20:36:16.686Z,13.50
2022-12-03T20:38:43.285Z,14.88
2022-12-03T20:41:12.527Z,14.00
2022-12-03T20:43:38.976Z,14.02
2022-12-03T20:46:29.180Z,14.02
2022-12-03T20:48:56.088Z,12.55
2022-12-03T20:51:25.282Z,12.35
2022-12-03T20:53:52.039Z,14.30
2022-12-03T20:56:27.244Z,14.38
2022-12-03T20:58:53.882Z,14.70
2022-12-03T21:01:21.915Z,13.82
2022-12-03T21:03:49.434Z,14.48
2022-12-03T21:06:16.245Z,14.83
2022-12-03T21:08:43.661Z,14.15
2022-12-03T21:11:14.031Z,14.00
2022-12-03T21:13:44.014Z,11.75
2022-12-03T21:16:13.497Z,13.60
2022-12-03T21:18:40.209Z,14.57
2022-12-03T21:21:07.167Z,14.85
2022-12-03T21:23:34.751Z,14.57
2022-12-03T21:26:05.876Z,15.02
2022-12-03T21:28:32.603Z,13.70
2022-12-03T21:31:04.475Z,17.20
2022-12-03T21:33:31.576Z,15.60
2022-12-03T21:35:59.015Z,15.10
2022-12-03T21:38:26.828Z,13.15
2022-12-03T21:40:53.663Z,15.15
2022-12-03T21:43:20.243Z,13.20
2022-12-03T21:45:46.951Z,14.40
2022-12-03T21:48:13.716Z,14.95
2022-12-03T21:50:42.202Z,14.85
2022-12-03T21:53:09.228Z,14.20
2022-12-03T21:55:38.975Z,15.03
2022-12-03T21:58:05.326Z,15.07
2022-12-03T22:00:31.732Z,13.70
2022-12-03T22:02:58.200Z,14.50
2022-12-03T22:05:24.617Z,15.57
2022-12-03T22:07:51.011Z,12.23
2022-12-03T22:10:17.688Z,12.65
2022-12-03T22:12:44.079Z,16.08
2022-12-03T22:15:16.567Z,14.23
2022-12-03T22:17:44.972Z,13.98
2022-12-03T22:20:11.842Z,13.53
2022-12-03T22:22:38.165Z,12.27
2022-12-03T22:25:04.826Z,12.82
2022-12-03T22:27:31.214Z,15.25
2022-12-03T22:29:57.713Z,13.18
2022-12-03T22:32:24.403Z,14.00
2022-12-03T22:34:50.754Z,14.15
2022-12-03T22:37:17.170Z,14.25
2022-12-03T22:39:43.592Z,12.43
2022-12-03T22:42:10.056Z,16.52
2022-12-03T22:44:36.438Z,15.60
2022-12-03T22:47:03.009Z,14.93
2022-12-03T22:49:29.494Z,14.27
2022-12-03T22:51:55.860Z,15.60
2022-12-03T22:54:24.067Z,16.92
2022-12-03T22:56:50.815Z,16.87
2022-12-03T22:59:17.322Z,13.45
2022-12-03T23:01:43.766Z,15.77
2022-12-03T23:04:10.901Z,14.23
2022-12-03T23:06:38.343Z,14.85
2022-12-03T23:09:06.474Z,15.37
2022-12-03T23:11:32.904Z,13.45
2022-12-03T23:13:59.562Z,16.90
2022-12-03T23:16:29.051Z,15.77
2022-12-03T23:18:57.695Z,15.32
2022-12-03T23:21:29.915Z,17.80
2022-12-03T23:24:01.312Z,17.48
2022-12-03T23:26:28.670Z,16.02
2022-12-03T23:28:56.084Z,18.90
2022-12-03T23:31:26.216Z,13.27
2022-12-03T23:33:53.361Z,16.27
2022-12-03T23:36:21.181Z,15.00
2022-12-03T23:38:47.762Z,15.30
2022-12-03T23:41:18.106Z,16.70
2022-12-03T23:43:44.547Z,14.38
2022-12-03T23:46:13.935Z,15.20
2022-12-03T23:48:40.985Z,17.30
2022-12-03T23:51:12.737Z,17.70
2022-12-03T23:53:40.198Z,15.10
2022-12-03T23:56:12.051Z,18.45
2022-12-03T23:58:38.628Z,14.50
